Wiscasset, ME

3:25 PM EDT on April 26, 2015 (GMT -0400)
Acorn Road | | Change Station
CLOSE
Current Station
Personal Weather Station
Location: Wiscasset, ME
Elevation: 144 ft
Nearby Weather Stations

Elev 144 ft 44.00 °N, 69.70 °W | Updated 9 seconds ago

Overcast
Overcast
52.3 °F
Feels Like 52.3 °F
N
2.0
Wind Variable Wind from NW
Gusts 5.0 mph

Today
High -- | Low -- °F
--% Chance of Precip.
Yesterday
High -- | Low -- °F
Precip. -- in
5:38 AM 7:35 PM
First Quarter, 58% visible
Pressure 29.61 in
Visibility 10.0 miles
Clouds Few 3500 ft
Scattered Clouds 6500 ft
Overcast 9000 ft
Dew Point 38 °F
Humidity 58%
Rainfall 0.00 in
Snow Depth Not available.
UV 2 out of 12
Pollen 8.70 out of 12
Air Quality Not available.
Flu Activity Regional
METAR KIWI 261853Z AUTO VRB06KT 10SM FEW035 SCT065 OVC090 12/02 A2961 RMK AO2 SLP027 T01170022

More Conditions Fewer Conditions

Pressure 29.61 in
Visibility 10.0 miles
Clouds Few 3500 ft
Scattered Clouds 6500 ft
Overcast 9000 ft
Dew Point 38 °F
Humidity 58%
Rainfall 0.00 in
Snow Depth Not available.
UV 2 out of 12
Pollen 8.70 out of 12
Air Quality Not available.
Flu Activity Regional
METAR KIWI 261853Z AUTO VRB06KT 10SM FEW035 SCT065 OVC090 12/02 A2961 RMK AO2 SLP027 T01170022

More Conditions Fewer Conditions

The full scope of the disaster following a powerful 7.8-magnitude earthquake in Nepal may not come into view for days, but global charities are already sending emergency aid. Click to see how you can help.

10-Day Weather Forecast

Almanac

Astronomy

Apr. 26, 2015 Rise Set
Actual Time
Civil Twilight
Nautical Twilight
Astronomical Twilight
Moon
Length of Visible Light
Length of Day
Tomorrow will be .
, % of the Moon is Illuminated

Today's Extremes

State Highs State Lows

Community

WunderPhotos

Upload Photos

1,817,097 photos uploaded!

WunderBlogs® & News

Nearby

Air Quality

  Air Quality AQ Index Pollutant
Not available.

Snow Depth

Station Depth Elevation

Earthquake Activity

City Distance Mag. Time & Date
Minimum magnitude displayed is 2.5.

Coastal Water Temperatures

Place Temperature

Stations

Nearby Weather Stations

Station Location Temp. Windchill Dew Point Humidity Wind Precip. Elev Updated Type